createdAt,value
2018-02-16T00:00:56.841Z,1007.87
2018-02-16T00:02:11.593Z,1007.92
2018-02-16T00:03:26.112Z,1007.92
2018-02-16T00:04:40.055Z,1007.94
2018-02-16T00:05:54.354Z,1008.02
2018-02-16T00:07:08.888Z,1008.03
2018-02-16T00:08:23.425Z,1008.05
2018-02-16T00:09:37.696Z,1008.02
2018-02-16T00:10:52.256Z,1008.04
2018-02-16T00:12:06.551Z,1008.07
2018-02-16T00:13:20.865Z,1008.12
2018-02-16T00:14:35.087Z,1008.11
2018-02-16T00:15:49.279Z,1008.15
2018-02-16T00:17:03.075Z,1008.23
2018-02-16T00:18:17.237Z,1008.17
2018-02-16T00:19:31.700Z,1008.22
2018-02-16T00:20:45.914Z,1008.17
2018-02-16T00:21:59.868Z,1008.19
2018-02-16T00:23:14.764Z,1008.22
2018-02-16T00:24:28.930Z,1008.26
2018-02-16T00:25:42.886Z,1008.31
2018-02-16T00:26:57.061Z,1008.3
2018-02-16T00:28:10.775Z,1008.37
2018-02-16T00:29:24.982Z,1008.36
2018-02-16T00:30:39.579Z,1008.32
2018-02-16T00:31:53.539Z,1008.31
2018-02-16T00:33:07.468Z,1008.41
2018-02-16T00:34:21.453Z,1008.43
2018-02-16T00:35:35.455Z,1008.38
2018-02-16T00:36:49.341Z,1008.31
2018-02-16T00:38:03.552Z,1008.31
2018-02-16T00:39:17.979Z,1008.31
2018-02-16T00:40:32.689Z,1008.25
2018-02-16T00:41:46.904Z,1008.19
2018-02-16T00:43:00.881Z,1008.22
2018-02-16T00:44:14.630Z,1008.24
2018-02-16T00:45:28.566Z,1008.34
2018-02-16T00:46:42.911Z,1008.39
2018-02-16T00:47:56.617Z,1008.34
2018-02-16T00:49:10.941Z,1008.37
2018-02-16T00:50:25.395Z,1008.45
2018-02-16T00:51:39.849Z,1008.51
2018-02-16T00:52:53.549Z,1008.51
2018-02-16T00:54:07.238Z,1008.46
2018-02-16T00:55:21.183Z,1008.48
2018-02-16T00:56:35.868Z,1008.42
2018-02-16T00:57:49.611Z,1008.35
2018-02-16T00:59:03.814Z,1008.31
2018-02-16T01:00:18.561Z,1008.31
2018-02-16T01:01:32.826Z,1008.29
2018-02-16T01:02:47.027Z,1008.31
2018-02-16T01:04:01.343Z,1008.28
2018-02-16T01:05:15.550Z,1008.3
2018-02-16T01:06:29.739Z,1008.37
2018-02-16T01:07:43.672Z,1008.44
2018-02-16T01:08:57.628Z,1008.49
2018-02-16T01:10:11.537Z,1008.55
2018-02-16T01:11:25.753Z,1008.56
2018-02-16T01:12:40.735Z,1008.57
2018-02-16T01:13:54.733Z,1008.6
2018-02-16T01:15:09.173Z,1008.62
2018-02-16T01:16:23.890Z,1008.63
2018-02-16T01:17:37.838Z,1008.7
2018-02-16T01:18:52.010Z,1008.78
2018-02-16T01:20:06.206Z,1008.84
2018-02-16T01:21:20.672Z,1008.87
2018-02-16T01:22:35.070Z,1008.87
2018-02-16T01:23:49.741Z,1008.85
2018-02-16T01:25:04.030Z,1008.85
2018-02-16T01:26:18.208Z,1008.91
2018-02-16T01:27:32.130Z,1008.98
2018-02-16T01:28:46.881Z,1008.98
2018-02-16T01:30:00.569Z,1009.08
2018-02-16T01:31:14.537Z,1009.06
2018-02-16T01:32:28.714Z,1009.09
2018-02-16T01:33:43.122Z,1009.04
2018-02-16T01:34:57.037Z,1008.97
2018-02-16T01:36:11.511Z,1008.97
2018-02-16T01:37:25.838Z,1008.98
2018-02-16T01:38:40.271Z,1009.01
2018-02-16T01:39:54.688Z,1009.01
2018-02-16T01:41:09.096Z,1008.96
2018-02-16T01:42:23.613Z,1008.92
2018-02-16T01:43:37.783Z,1008.89
2018-02-16T01:44:51.706Z,1008.91
2018-02-16T01:46:05.679Z,1008.98
2018-02-16T01:47:20.097Z,1009.05
2018-02-16T01:48:34.787Z,1009.11
2018-02-16T01:49:49.222Z,1009.19
2018-02-16T01:51:03.652Z,1009.25
2018-02-16T01:52:18.609Z,1009.35
2018-02-16T01:53:32.773Z,1009.39
2018-02-16T01:54:46.983Z,1009.42
2018-02-16T01:56:01.223Z,1009.43
2018-02-16T01:57:15.448Z,1009.42
2018-02-16T01:58:29.887Z,1009.45
2018-02-16T01:59:44.578Z,1009.42
2018-02-16T02:00:58.231Z,1009.46
2018-02-16T02:02:12.187Z,1009.48
2018-02-16T02:03:26.837Z,1009.53
2018-02-16T02:04:40.506Z,1009.52
2018-02-16T02:05:54.970Z,1009.55
2018-02-16T02:07:09.139Z,1009.5
2018-02-16T02:08:23.123Z,1009.51
2018-02-16T02:09:37.539Z,1009.43
2018-02-16T02:10:51.795Z,1009.44
2018-02-16T02:12:06.241Z,1009.39
2018-02-16T02:13:20.388Z,1009.42
2018-02-16T02:14:34.842Z,1009.41
2018-02-16T02:15:48.736Z,1009.33
2018-02-16T02:17:03.176Z,1009.34
2018-02-16T02:18:17.369Z,1009.38
2018-02-16T02:19:31.552Z,1009.43
2018-02-16T02:20:44.955Z,1009.41
2018-02-16T02:21:59.421Z,1009.33
2018-02-16T02:23:14.141Z,1009.33
2018-02-16T02:24:28.815Z,1009.29
2018-02-16T02:25:42.752Z,1009.29
2018-02-16T02:26:56.415Z,1009.35
2018-02-16T02:28:10.376Z,1009.38
2018-02-16T02:29:24.297Z,1009.43
2018-02-16T02:30:38.433Z,1009.48
2018-02-16T02:31:52.645Z,1009.47
2018-02-16T02:33:07.092Z,1009.42
2018-02-16T02:34:21.585Z,1009.43
2018-02-16T02:35:35.748Z,1009.39
2018-02-16T02:36:50.184Z,1009.46
2018-02-16T02:38:04.385Z,1009.47
2018-02-16T02:39:18.347Z,1009.48
2018-02-16T02:40:32.290Z,1009.46
2018-02-16T02:41:47.023Z,1009.48
2018-02-16T02:43:02.022Z,1009.45
2018-02-16T02:44:16.868Z,1009.48
2018-02-16T02:45:30.585Z,1009.5
2018-02-16T02:46:45.545Z,1009.52
2018-02-16T02:47:59.938Z,1009.46
2018-02-16T02:49:14.159Z,1009.46
2018-02-16T02:50:28.341Z,1009.48
2018-02-16T02:51:42.526Z,1009.51
2018-02-16T02:52:56.433Z,1009.59
2018-02-16T02:54:11.371Z,1009.62
2018-02-16T02:55:24.839Z,1009.64
2018-02-16T02:56:38.542Z,1009.69
2018-02-16T02:57:53.219Z,1009.67
2018-02-16T02:59:07.136Z,1009.65
2018-02-16T03:00:21.531Z,1009.63
2018-02-16T03:01:35.490Z,1009.66
2018-02-16T03:02:49.411Z,1009.71
2018-02-16T03:04:03.349Z,1009.72
2018-02-16T03:05:17.563Z,1009.78
2018-02-16T03:06:32.530Z,1009.86
2018-02-16T03:07:47.194Z,1009.88
2018-02-16T03:09:01.647Z,1009.86
2018-02-16T03:10:15.807Z,1009.9
2018-02-16T03:11:30.530Z,1009.84
2018-02-16T03:12:45.498Z,1009.78
2018-02-16T03:13:59.689Z,1009.73
2018-02-16T03:15:13.887Z,1009.71
2018-02-16T03:16:28.040Z,1009.77
2018-02-16T03:17:42.312Z,1009.83
2018-02-16T03:18:56.725Z,1009.89
2018-02-16T03:20:10.609Z,1009.9
2018-02-16T03:21:24.319Z,1009.94
2018-02-16T03:22:38.996Z,1009.93
2018-02-16T03:23:53.656Z,1009.96
2018-02-16T03:25:07.583Z,1009.98
2018-02-16T03:26:22.018Z,1009.97
2018-02-16T03:27:35.706Z,1009.91
2018-02-16T03:28:49.895Z,1009.95
2018-02-16T03:30:04.083Z,1009.86
2018-02-16T03:31:18.795Z,1009.88
2018-02-16T03:32:33.017Z,1009.83
2018-02-16T03:33:47.187Z,1009.78
2018-02-16T03:35:01.663Z,1009.76
2018-02-16T03:36:16.364Z,1009.74
2018-02-16T03:37:31.038Z,1009.8
2018-02-16T03:38:45.455Z,1009.99
2018-02-16T03:39:59.648Z,1010.14
2018-02-16T03:41:13.310Z,1010.17
2018-02-16T03:42:27.225Z,1010.22
2018-02-16T03:43:41.639Z,1010.23
2018-02-16T03:44:55.793Z,1010.19
2018-02-16T03:46:10.224Z,1010.18
2018-02-16T03:47:24.667Z,1010.24
2018-02-16T03:48:39.086Z,1010.28
2018-02-16T03:49:53.240Z,1010.28
2018-02-16T03:51:07.522Z,1010.28
2018-02-16T03:52:21.781Z,1010.33
2018-02-16T03:53:35.692Z,1010.36
2018-02-16T03:54:50.150Z,1010.43
2018-02-16T03:56:04.062Z,1010.51
2018-02-16T03:57:18.011Z,1010.53
2018-02-16T03:58:32.221Z,1010.59
2018-02-16T03:59:46.652Z,1010.55
2018-02-16T04:01:00.844Z,1010.55
2018-02-16T04:02:14.758Z,1010.53
2018-02-16T04:03:28.941Z,1010.51
2018-02-16T04:04:42.597Z,1010.57
2018-02-16T04:05:57.026Z,1010.56
2018-02-16T04:07:11.434Z,1010.63
2018-02-16T04:08:25.340Z,1010.69
2018-02-16T04:09:39.760Z,1010.8
2018-02-16T04:10:54.747Z,1010.83
2018-02-16T04:12:09.438Z,1010.89
2018-02-16T04:13:23.370Z,1010.88
2018-02-16T04:14:37.410Z,1010.92
2018-02-16T04:15:51.332Z,1010.89
2018-02-16T04:17:05.986Z,1010.82
2018-02-16T04:18:19.935Z,1010.7
2018-02-16T04:19:34.370Z,1010.73
2018-02-16T04:20:48.343Z,1010.78
2018-02-16T04:22:02.815Z,1010.85
2018-02-16T04:23:16.487Z,1010.91
2018-02-16T04:24:30.741Z,1010.9
2018-02-16T04:25:44.656Z,1010.85
2018-02-16T04:26:58.826Z,1010.84
2018-02-16T04:28:13.002Z,1010.91
2018-02-16T04:29:27.457Z,1011.01
2018-02-16T04:30:41.885Z,1011.05
2018-02-16T04:31:56.341Z,1011.12
2018-02-16T04:33:10.593Z,1011.14
2018-02-16T04:34:25.138Z,1011.17
2018-02-16T04:35:39.587Z,1011.23
2018-02-16T04:36:54.083Z,1011.21
2018-02-16T04:38:08.296Z,1011.19
2018-02-16T04:39:22.870Z,1011.16
2018-02-16T04:40:37.109Z,1011.21
2018-02-16T04:41:51.008Z,1011.29
2018-02-16T04:43:04.444Z,1011.33
2018-02-16T04:44:19.424Z,1011.31
2018-02-16T04:45:33.632Z,1011.21
2018-02-16T04:46:47.331Z,1011.22
2018-02-16T04:48:01.757Z,1011.27
2018-02-16T04:49:16.222Z,1011.32
2018-02-16T04:50:30.917Z,1011.32
2018-02-16T04:51:44.645Z,1011.27
2018-02-16T04:52:59.121Z,1011.24
2018-02-16T04:54:13.068Z,1011.25
2018-02-16T04:55:27.356Z,1011.36
2018-02-16T04:56:41.779Z,1011.34
2018-02-16T04:57:55.871Z,1011.26
2018-02-16T04:59:09.814Z,1011.23
2018-02-16T05:00:24.312Z,1011.3
2018-02-16T05:01:38.578Z,1011.34
2018-02-16T05:02:52.782Z,1011.36
2018-02-16T05:04:06.727Z,1011.37
2018-02-16T05:05:21.464Z,1011.43
2018-02-16T05:06:35.976Z,1011.41
2018-02-16T05:07:50.407Z,1011.43
2018-02-16T05:09:04.630Z,1011.44
2018-02-16T05:10:19.144Z,1011.47
2018-02-16T05:11:33.638Z,1011.56
2018-02-16T05:12:48.377Z,1011.49
2018-02-16T05:14:03.023Z,1011.54
2018-02-16T05:15:16.987Z,1011.57
2018-02-16T05:16:31.562Z,1011.57
2018-02-16T05:17:45.835Z,1011.62
2018-02-16T05:19:00.412Z,1011.55
2018-02-16T05:20:14.914Z,1011.57
2018-02-16T05:21:28.595Z,1011.57
2018-02-16T05:22:42.572Z,1011.56
2018-02-16T05:23:57.306Z,1011.65
2018-02-16T05:25:12.087Z,1011.71
2018-02-16T05:26:26.519Z,1011.75
2018-02-16T05:27:40.754Z,1011.76
2018-02-16T05:28:55.572Z,1011.81
2018-02-16T05:30:10.001Z,1011.84
2018-02-16T05:31:24.341Z,1011.85
2018-02-16T05:32:39.265Z,1011.86
2018-02-16T05:33:53.195Z,1011.9
2018-02-16T05:35:07.911Z,1011.87
2018-02-16T05:36:22.107Z,1011.95
2018-02-16T05:37:36.609Z,1011.9
2018-02-16T05:38:50.820Z,1011.86
2018-02-16T05:40:04.762Z,1011.85
2018-02-16T05:41:18.699Z,1011.93
2018-02-16T05:42:32.431Z,1011.97
2018-02-16T05:43:47.106Z,1011.94
2018-02-16T05:45:01.809Z,1011.93
2018-02-16T05:46:15.740Z,1011.94
2018-02-16T05:47:29.456Z,1011.96
2018-02-16T05:48:43.666Z,1011.99
2018-02-16T05:49:57.885Z,1012.02
2018-02-16T05:51:12.122Z,1012.05
2018-02-16T05:52:26.622Z,1012.07
2018-02-16T05:53:41.054Z,1012.1
2018-02-16T05:54:55.518Z,1012.1
2018-02-16T05:56:09.551Z,1012.11
2018-02-16T05:57:24.190Z,1012.15
2018-02-16T05:58:38.177Z,1012.13
2018-02-16T05:59:52.679Z,1012.15
2018-02-16T06:01:07.143Z,1012.17
2018-02-16T06:02:21.345Z,1012.22
2018-02-16T06:03:35.283Z,1012.25
2018-02-16T06:04:49.365Z,1012.25
2018-02-16T06:06:04.123Z,1012.32
2018-02-16T06:07:18.090Z,1012.31
2018-02-16T06:08:31.791Z,1012.29
2018-02-16T06:09:46.327Z,1012.3
2018-02-16T06:11:00.302Z,1012.34
2018-02-16T06:12:14.344Z,1012.41
2018-02-16T06:13:28.552Z,1012.39
2018-02-16T06:14:43.275Z,1012.42
2018-02-16T06:15:57.793Z,1012.44
2018-02-16T06:17:12.319Z,1012.4
2018-02-16T06:18:26.826Z,1012.43
2018-02-16T06:19:40.868Z,1012.5
2018-02-16T06:20:54.357Z,1012.5
2018-02-16T06:22:09.348Z,1012.52
2018-02-16T06:23:23.900Z,1012.51
2018-02-16T06:24:38.383Z,1012.51
2018-02-16T06:25:52.863Z,1012.53
2018-02-16T06:27:07.429Z,1012.57
2018-02-16T06:28:22.199Z,1012.55
2018-02-16T06:29:36.530Z,1012.56
2018-02-16T06:30:51.549Z,1012.6
2018-02-16T06:32:05.847Z,1012.67
2018-02-16T06:33:20.541Z,1012.65
2018-02-16T06:34:35.048Z,1012.69
2018-02-16T06:35:49.508Z,1012.72
2018-02-16T06:37:03.553Z,1012.68
2018-02-16T06:38:18.361Z,1012.66
2018-02-16T06:39:32.590Z,1012.71
2018-02-16T06:40:46.385Z,1012.7
2018-02-16T06:42:01.010Z,1012.7
2018-02-16T06:43:15.526Z,1012.75
2018-02-16T06:44:29.816Z,1012.78
2018-02-16T06:45:44.065Z,1012.77
2018-02-16T06:46:58.426Z,1012.76
2018-02-16T06:48:12.644Z,1012.69
2018-02-16T06:49:26.909Z,1012.77
2018-02-16T06:50:40.886Z,1012.71
2018-02-16T06:51:55.626Z,1012.75
2018-02-16T06:53:09.688Z,1012.72
2018-02-16T06:54:23.943Z,1012.73
2018-02-16T06:55:38.741Z,1012.75
2018-02-16T06:56:53.268Z,1012.85
2018-02-16T06:58:07.926Z,1012.89
2018-02-16T06:59:22.156Z,1012.96
2018-02-16T07:00:35.875Z,1012.93
2018-02-16T07:01:49.849Z,1012.98
2018-02-16T07:03:04.391Z,1013.07
2018-02-16T07:04:18.863Z,1013.07
2018-02-16T07:05:33.151Z,1013.11
2018-02-16T07:06:47.460Z,1013.13
2018-02-16T07:08:02.001Z,1013.22
2018-02-16T07:09:16.314Z,1013.21
2018-02-16T07:10:30.062Z,1013.24
2018-02-16T07:11:44.992Z,1013.23
2018-02-16T07:12:59.275Z,1013.31
2018-02-16T07:14:13.569Z,1013.33
2018-02-16T07:15:27.556Z,1013.34
2018-02-16T07:16:41.834Z,1013.28
2018-02-16T07:17:56.119Z,1013.25
2018-02-16T07:19:10.730Z,1013.26
2018-02-16T07:20:25.469Z,1013.23
2018-02-16T07:21:39.522Z,1013.2
2018-02-16T07:22:53.518Z,1013.21
2018-02-16T07:24:08.336Z,1013.18
2018-02-16T07:25:22.842Z,1013.2
2018-02-16T07:26:37.346Z,1013.23
2018-02-16T07:27:52.130Z,1013.21
2018-02-16T07:29:07.109Z,1013.26
2018-02-16T07:30:21.632Z,1013.29
2018-02-16T07:31:36.386Z,1013.27
2018-02-16T07:32:50.663Z,1013.3
2018-02-16T07:34:04.918Z,1013.29
2018-02-16T07:35:18.626Z,1013.26
2018-02-16T07:36:32.112Z,1013.32
2018-02-16T07:37:46.676Z,1013.34
2018-02-16T07:39:01.560Z,1013.33
2018-02-16T07:40:16.576Z,1013.35
2018-02-16T07:42:59.726Z,1013.33
2018-02-16T07:44:14.422Z,1013.34
2018-02-16T07:45:28.707Z,1013.35
2018-02-16T07:46:42.648Z,1013.43
2018-02-16T07:47:57.250Z,1013.46
2018-02-16T07:49:11.524Z,1013.49
2018-02-16T07:50:26.182Z,1013.6
2018-02-16T07:51:40.427Z,1013.66
2018-02-16T07:52:54.693Z,1013.66
2018-02-16T07:54:09.184Z,1013.65
2018-02-16T07:55:23.370Z,1013.67
2018-02-16T07:56:38.010Z,1013.65
2018-02-16T07:57:52.390Z,1013.64
2018-02-16T07:59:06.721Z,1013.62
2018-02-16T08:00:20.822Z,1013.66
2018-02-16T08:01:35.262Z,1013.69
2018-02-16T08:02:50.039Z,1013.72
2018-02-16T08:04:04.517Z,1013.69
2018-02-16T08:05:19.015Z,1013.72
2018-02-16T08:06:48.301Z,1013.77
2018-02-16T08:08:02.086Z,1013.77
2018-02-16T08:09:16.983Z,1013.74
2018-02-16T08:10:31.623Z,1013.68
2018-02-16T08:11:45.387Z,1013.74
2018-02-16T08:12:59.386Z,1013.77
2018-02-16T08:14:13.105Z,1013.76
2018-02-16T08:15:27.973Z,1013.8
2018-02-16T08:16:43.255Z,1013.8
2018-02-16T08:17:57.799Z,1013.77
2018-02-16T08:19:12.121Z,1013.83
2018-02-16T08:20:26.241Z,1013.87
2018-02-16T08:21:40.750Z,1013.86
2018-02-16T08:22:55.009Z,1013.88
2018-02-16T08:24:09.249Z,1013.9
2018-02-16T08:25:23.287Z,1013.88
2018-02-16T08:29:20.092Z,1014.03
2018-02-16T08:35:18.174Z,1014.04
2018-02-16T08:36:32.151Z,1014.09
2018-02-16T08:37:46.502Z,1014.12
2018-02-16T08:39:01.377Z,1014.17
2018-02-16T08:40:16.156Z,1014.2
2018-02-16T08:41:29.921Z,1014.27
2018-02-16T08:42:44.474Z,1014.26
2018-02-16T08:43:59.566Z,1014.3
2018-02-16T08:45:14.079Z,1014.34
2018-02-16T08:46:28.373Z,1014.37
2018-02-16T08:47:42.569Z,1014.33
2018-02-16T08:48:56.771Z,1014.37
2018-02-16T08:50:11.655Z,1014.36
2018-02-16T08:51:25.788Z,1014.39
2018-02-16T08:52:40.304Z,1014.42
2018-02-16T08:53:54.799Z,1014.44
2018-02-16T08:55:09.480Z,1014.47
2018-02-16T08:56:23.214Z,1014.45
2018-02-16T08:57:37.723Z,1014.51
2018-02-16T08:58:51.719Z,1014.49
2018-02-16T09:00:05.946Z,1014.54
2018-02-16T09:01:20.495Z,1014.58
2018-02-16T09:02:35.298Z,1014.56
2018-02-16T09:03:49.775Z,1014.55
2018-02-16T09:05:03.477Z,1014.61
2018-02-16T09:06:17.511Z,1014.57
2018-02-16T09:07:31.706Z,1014.64
2018-02-16T09:08:45.446Z,1014.63
2018-02-16T09:09:59.549Z,1014.68
2018-02-16T09:11:13.604Z,1014.69
2018-02-16T09:12:27.937Z,1014.7
2018-02-16T09:13:42.233Z,1014.72
2018-02-16T09:14:56.826Z,1014.8
2018-02-16T09:16:11.123Z,1014.81
2018-02-16T09:17:25.655Z,1014.79
2018-02-16T09:18:39.429Z,1014.87
2018-02-16T09:19:53.974Z,1014.88
2018-02-16T09:21:08.559Z,1014.92
2018-02-16T09:22:22.989Z,1014.91
2018-02-16T09:23:37.339Z,1014.93
2018-02-16T09:24:51.543Z,1014.97
2018-02-16T09:26:05.821Z,1014.95
2018-02-16T09:27:20.124Z,1014.94
2018-02-16T09:28:35.028Z,1014.99
2018-02-16T09:29:49.760Z,1014.96
2018-02-16T09:31:03.492Z,1014.95
2018-02-16T09:32:18.295Z,1014.99
2018-02-16T09:33:32.805Z,1014.97
2018-02-16T09:34:47.062Z,1015.1
2018-02-16T09:36:01.746Z,1015.03
2018-02-16T09:37:15.708Z,1015.06
2018-02-16T09:38:29.421Z,1015.06
2018-02-16T09:41:12.795Z,1015.08
2018-02-16T09:42:27.530Z,1015.1
2018-02-16T09:43:42.300Z,1015.13
2018-02-16T09:44:56.539Z,1015.09
2018-02-16T09:46:10.525Z,1015.12
2018-02-16T09:47:24.536Z,1015.09
2018-02-16T09:48:38.548Z,1015.1
2018-02-16T09:49:53.050Z,1015.14
2018-02-16T09:51:07.369Z,1015.15
2018-02-16T09:52:21.894Z,1015.22
2018-02-16T09:53:36.621Z,1015.27
2018-02-16T09:54:50.594Z,1015.26
2018-02-16T09:56:05.526Z,1015.33
2018-02-16T09:57:20.264Z,1015.34
2018-02-16T09:58:34.849Z,1015.35
2018-02-16T09:59:49.119Z,1015.37
2018-02-16T10:01:04.196Z,1015.34
2018-02-16T10:02:18.204Z,1015.34
2018-02-16T10:03:32.784Z,1015.32
2018-02-16T10:04:46.982Z,1015.36
2018-02-16T10:06:01.570Z,1015.35
2018-02-16T10:07:15.881Z,1015.31
2018-02-16T10:08:30.752Z,1015.32
2018-02-16T10:09:44.717Z,1015.31
2018-02-16T10:10:58.409Z,1015.3
2018-02-16T10:12:12.722Z,1015.26
2018-02-16T10:13:26.884Z,1015.3
2018-02-16T10:14:40.851Z,1015.28
2018-02-16T10:15:55.725Z,1015.31
2018-02-16T10:17:10.557Z,1015.38
2018-02-16T10:18:24.817Z,1015.36
2018-02-16T10:19:39.582Z,1015.38
2018-02-16T10:20:54.143Z,1015.39
2018-02-16T10:22:07.939Z,1015.41
2018-02-16T10:23:22.496Z,1015.49
2018-02-16T10:24:36.872Z,1015.52
2018-02-16T10:25:51.107Z,1015.45
2018-02-16T10:27:05.738Z,1015.58
2018-02-16T10:28:20.129Z,1015.54
2018-02-16T10:29:33.728Z,1015.54
2018-02-16T10:30:48.264Z,1015.58
2018-02-16T10:32:02.236Z,1015.52
2018-02-16T10:33:16.017Z,1015.58
2018-02-16T10:34:30.313Z,1015.6
2018-02-16T10:35:44.316Z,1015.61
2018-02-16T10:36:58.369Z,1015.64
2018-02-16T10:38:13.118Z,1015.73
2018-02-16T10:39:27.233Z,1015.75
2018-02-16T10:40:41.862Z,1015.72
2018-02-16T10:41:56.201Z,1015.75
2018-02-16T10:43:11.023Z,1015.82
2018-02-16T10:44:25.611Z,1015.74
2018-02-16T10:45:39.721Z,1015.79
2018-02-16T10:46:54.003Z,1015.8
2018-02-16T10:48:08.247Z,1015.73
2018-02-16T10:49:22.244Z,1015.77
2018-02-16T10:50:36.475Z,1015.75
2018-02-16T10:51:50.957Z,1015.7
2018-02-16T10:53:04.922Z,1015.73
2018-02-16T10:55:47.879Z,1015.7
2018-02-16T10:57:02.131Z,1015.67
2018-02-16T10:58:16.425Z,1015.7
2018-02-16T10:59:31.019Z,1015.68
2018-02-16T11:00:45.226Z,1015.7
2018-02-16T11:02:00.165Z,1015.69
2018-02-16T11:03:14.759Z,1015.71
2018-02-16T11:04:28.961Z,1015.68
2018-02-16T11:05:42.925Z,1015.68
2018-02-16T11:06:57.751Z,1015.67
2018-02-16T11:08:12.332Z,1015.66
2018-02-16T11:09:41.239Z,1015.66
2018-02-16T11:10:55.483Z,1015.63
2018-02-16T11:12:10.071Z,1015.63
2018-02-16T11:13:24.297Z,1015.56
2018-02-16T11:14:38.881Z,1015.6
2018-02-16T11:15:53.429Z,1015.56
2018-02-16T11:17:07.399Z,1015.58
2018-02-16T11:18:21.445Z,1015.53
2018-02-16T11:19:36.045Z,1015.57
2018-02-16T11:20:50.311Z,1015.58
2018-02-16T11:22:04.575Z,1015.55
2018-02-16T11:23:19.172Z,1015.59
2018-02-16T11:24:33.691Z,1015.59
2018-02-16T11:25:48.500Z,1015.56
2018-02-16T11:27:02.566Z,1015.56
2018-02-16T11:28:17.345Z,1015.54
2018-02-16T11:29:31.333Z,1015.51
2018-02-16T11:30:45.357Z,1015.53
2018-02-16T11:31:59.194Z,1015.55
2018-02-16T11:33:12.980Z,1015.51
2018-02-16T11:34:27.635Z,1015.53
2018-02-16T11:35:41.945Z,1015.52
2018-02-16T11:36:55.963Z,1015.5
2018-02-16T11:38:09.963Z,1015.52
2018-02-16T11:39:23.909Z,1015.47
2018-02-16T11:40:38.281Z,1015.48
2018-02-16T11:41:52.041Z,1015.48
2018-02-16T11:43:06.764Z,1015.5
2018-02-16T11:44:20.800Z,1015.47
2018-02-16T11:45:35.341Z,1015.56
2018-02-16T11:46:49.881Z,1015.59
2018-02-16T11:48:04.129Z,1015.62
2018-02-16T11:49:18.283Z,1015.57
2018-02-16T11:50:32.827Z,1015.59
2018-02-16T11:51:46.633Z,1015.55
2018-02-16T11:53:01.106Z,1015.51
2018-02-16T11:54:14.914Z,1015.55
2018-02-16T11:55:28.916Z,1015.54
2018-02-16T11:56:43.503Z,1015.55
2018-02-16T11:57:57.850Z,1015.53
2018-02-16T11:59:12.096Z,1015.54
2018-02-16T12:00:26.466Z,1015.56
2018-02-16T12:01:40.478Z,1015.6
2018-02-16T12:02:54.719Z,1015.53
2018-02-16T12:04:08.505Z,1015.56
2018-02-16T12:05:23.053Z,1015.53
2018-02-16T12:06:37.828Z,1015.56
2018-02-16T12:07:52.789Z,1015.48
2018-02-16T12:09:07.105Z,1015.51
2018-02-16T12:10:21.153Z,1015.5
2018-02-16T12:11:35.603Z,1015.5
2018-02-16T12:12:49.848Z,1015.47
2018-02-16T12:14:04.459Z,1015.49
2018-02-16T12:15:19.067Z,1015.52
2018-02-16T12:16:33.657Z,1015.53
2018-02-16T12:17:48.236Z,1015.47
2018-02-16T12:19:03.420Z,1015.49
2018-02-16T12:20:17.495Z,1015.4
2018-02-16T12:21:31.593Z,1015.47
2018-02-16T12:22:46.440Z,1015.42
2018-02-16T12:24:00.800Z,1015.47
2018-02-16T12:25:15.379Z,1015.42
2018-02-16T12:26:29.872Z,1015.41
2018-02-16T12:27:44.059Z,1015.45
2018-02-16T12:28:58.294Z,1015.46
2018-02-16T12:30:13.074Z,1015.47
2018-02-16T12:31:27.363Z,1015.41
2018-02-16T12:32:42.183Z,1015.46
2018-02-16T12:33:56.745Z,1015.37
2018-02-16T12:35:11.088Z,1015.39
2018-02-16T12:36:25.104Z,1015.38
2018-02-16T12:37:39.140Z,1015.31
2018-02-16T12:38:53.707Z,1015.33
2018-02-16T12:40:07.973Z,1015.33
2018-02-16T12:41:22.344Z,1015.35
2018-02-16T12:42:36.637Z,1015.35
2018-02-16T12:43:50.916Z,1015.35
2018-02-16T12:45:05.587Z,1015.28
2018-02-16T12:46:20.230Z,1015.31
2018-02-16T12:47:35.326Z,1015.28
2018-02-16T12:48:49.621Z,1015.36
2018-02-16T12:50:03.963Z,1015.3
2018-02-16T12:51:18.281Z,1015.27
2018-02-16T12:52:32.625Z,1015.25
2018-02-16T12:53:46.926Z,1015.28
2018-02-16T12:55:01.152Z,1015.28
2018-02-16T12:56:15.195Z,1015.29
2018-02-16T12:57:29.519Z,1015.29
2018-02-16T12:58:43.522Z,1015.29
2018-02-16T12:59:57.850Z,1015.28
2018-02-16T13:01:12.164Z,1015.26
2018-02-16T13:02:26.843Z,1015.28
2018-02-16T13:03:41.161Z,1015.23
2018-02-16T13:04:55.939Z,1015.25
2018-02-16T13:06:10.274Z,1015.22
2018-02-16T13:07:24.573Z,1015.23
2018-02-16T13:08:39.481Z,1015.25
2018-02-16T13:09:53.839Z,1015.22
2018-02-16T13:11:08.131Z,1015.18
2018-02-16T13:12:22.495Z,1015.25
2018-02-16T13:13:37.065Z,1015.22
2018-02-16T13:14:50.928Z,1015.22
2018-02-16T13:16:05.587Z,1015.11
2018-02-16T13:17:19.904Z,1015.14
2018-02-16T13:18:33.734Z,1015.12
2018-02-16T13:19:48.044Z,1015.14
2018-02-16T13:21:02.547Z,1015.13
2018-02-16T13:22:16.886Z,1015.12
2018-02-16T13:23:31.023Z,1015.15
2018-02-16T13:24:45.252Z,1015.15
2018-02-16T13:25:59.579Z,1015.15
2018-02-16T13:27:13.949Z,1015.13
2018-02-16T13:28:28.317Z,1015.14
2018-02-16T13:29:42.990Z,1015.14
2018-02-16T13:30:57.820Z,1015.11
2018-02-16T13:32:11.948Z,1015.19
2018-02-16T13:33:26.518Z,1015.12
2018-02-16T13:34:41.095Z,1015.15
2018-02-16T13:35:56.080Z,1015.15
2018-02-16T13:37:10.956Z,1015.12
2018-02-16T13:38:25.394Z,1015.1
2018-02-16T13:39:39.614Z,1015.09
2018-02-16T13:40:54.189Z,1015.07
2018-02-16T13:42:08.344Z,1015.08
2018-02-16T13:43:22.674Z,1015.07
2018-02-16T13:44:37.353Z,1015.05
2018-02-16T13:45:51.898Z,1015.02
2018-02-16T13:47:06.389Z,1015
2018-02-16T13:48:20.861Z,1014.98
2018-02-16T13:49:35.703Z,1015.03
2018-02-16T13:50:50.616Z,1015.02
2018-02-16T13:52:05.193Z,1015.02
2018-02-16T13:53:19.515Z,1015.02
2018-02-16T13:54:34.113Z,1015.03
2018-02-16T13:55:48.180Z,1015.01
2018-02-16T13:57:02.242Z,1015.02
2018-02-16T13:58:16.384Z,1015.02
2018-02-16T13:59:30.543Z,1015.01
2018-02-16T14:00:45.144Z,1014.99
2018-02-16T14:02:00.043Z,1014.96
2018-02-16T14:03:14.075Z,1015.06
2018-02-16T14:04:28.661Z,1015.07
2018-02-16T14:05:43.230Z,1015.09
2018-02-16T14:06:58.362Z,1015.07
2018-02-16T14:08:12.655Z,1015.15
2018-02-16T14:09:27.362Z,1015.07
2018-02-16T14:10:42.022Z,1015.12
2018-02-16T14:11:56.382Z,1015.15
2018-02-16T14:13:11.327Z,1015.12
2018-02-16T14:14:26.218Z,1015.13
2018-02-16T14:15:41.001Z,1015.12
2018-02-16T14:16:55.848Z,1015.17
2018-02-16T14:18:09.898Z,1015.12
2018-02-16T14:19:25.087Z,1015.12
2018-02-16T14:20:39.751Z,1015.1
2018-02-16T14:21:54.216Z,1015.14
2018-02-16T14:23:08.460Z,1015.13
2018-02-16T14:24:22.895Z,1015.13
2018-02-16T14:25:37.227Z,1015.14
2018-02-16T14:26:51.173Z,1015.14
2018-02-16T14:28:06.091Z,1015.12
2018-02-16T14:29:20.057Z,1015.16
2018-02-16T14:30:34.243Z,1015.17
2018-02-16T14:31:48.902Z,1015.16
2018-02-16T14:33:03.341Z,1015.18
2018-02-16T14:34:17.988Z,1015.16
2018-02-16T14:35:32.535Z,1015.18
2018-02-16T14:36:47.338Z,1015.15
2018-02-16T14:38:01.670Z,1015.15
2018-02-16T14:39:16.350Z,1015.16
2018-02-16T14:40:30.665Z,1015.18
2018-02-16T14:41:45.623Z,1015.11
2018-02-16T14:42:59.377Z,1015.18
2018-02-16T14:44:14.277Z,1015.12
2018-02-16T14:45:29.148Z,1015.15
2018-02-16T14:46:43.553Z,1015.13
2018-02-16T14:47:57.924Z,1015.1
2018-02-16T14:49:12.323Z,1015.07
2018-02-16T14:50:26.489Z,1015.1
2018-02-16T14:51:40.541Z,1015.07
2018-02-16T14:52:55.151Z,1015.08
2018-02-16T14:54:10.101Z,1015.05
2018-02-16T14:55:24.692Z,1014.97
2018-02-16T14:56:39.107Z,1014.96
2018-02-16T14:57:53.995Z,1014.94
2018-02-16T14:59:08.486Z,1014.99
2018-02-16T15:00:23.404Z,1014.96
2018-02-16T15:01:37.369Z,1014.97
2018-02-16T15:02:51.848Z,1014.98
2018-02-16T15:04:06.000Z,1014.98
2018-02-16T15:05:20.272Z,1015
2018-02-16T15:06:34.942Z,1014.96
2018-02-16T15:07:49.289Z,1014.93
2018-02-16T15:09:04.129Z,1014.95
2018-02-16T15:10:18.740Z,1014.93
2018-02-16T15:11:32.810Z,1014.92
2018-02-16T15:12:47.412Z,1014.95
2018-02-16T15:14:02.068Z,1014.92